Time;durP1;ratioP1;P1;durP2;ratioP2;P2;SDS_P1;SDS_P2;PMS_P1;PMS_P2;Temp;Humidity;BMP_temperature;BMP_pressure;BME280_temperature;BME280_humidity;BME280_pressure;Samples;Min_cycle;Max_cycle;Signal;HPM_P1;HPM_P2
2022/10/07 00:01:38;;;;;;;6.63;4.78;;;8.90;99.90;;;;;;5061542;28;20055;-29
2022/10/07 00:04:04;;;;;;;8.88;5.05;;;8.90;99.90;;;;;;5049924;28;20048;-30
2022/10/07 00:06:30;;;;;;;9.07;5.63;;;8.90;99.90;;;;;;5066831;28;20037;-29
2022/10/07 00:08:55;;;;;;;7.28;5.65;;;8.90;99.90;;;;;;5060636;28;20042;-30
2022/10/07 00:11:27;;;;;;;8.55;5.20;;;8.80;99.90;;;;;;5066841;28;20036;-30
2022/10/07 00:13:55;;;;;;;6.97;5.18;;;8.80;99.90;;;;;;5050366;28;20040;-29
2022/10/07 00:16:24;;;;;;;8.73;5.28;;;8.80;99.90;;;;;;5084103;28;20123;-30
2022/10/07 00:18:53;;;;;;;8.68;5.32;;;8.80;99.90;;;;;;5057000;28;20040;-29
2022/10/07 00:21:19;;;;;;;11.82;6.28;;;8.80;99.90;;;;;;5063703;28;20040;-29
2022/10/07 00:23:46;;;;;;;8.25;5.18;;;8.70;99.90;;;;;;5072015;28;20032;-31
2022/10/07 00:26:15;;;;;;;7.80;4.72;;;8.70;99.90;;;;;;5067903;28;20047;-29
2022/10/07 00:28:41;;;;;;;7.57;5.25;;;8.70;99.90;;;;;;5069416;28;20555;-30
2022/10/07 00:31:40;;;;;;;10.35;5.93;;;8.70;99.90;;;;;;5067686;28;20039;-29
2022/10/07 00:34:06;;;;;;;8.30;5.72;;;8.60;99.90;;;;;;5041160;28;20086;-29
2022/10/07 00:36:35;;;;;;;10.55;6.05;;;8.60;99.90;;;;;;5064501;28;20032;-29
2022/10/07 00:39:04;;;;;;;8.20;5.70;;;8.60;99.90;;;;;;5071108;28;20051;-30
2022/10/07 00:41:32;;;;;;;13.48;5.60;;;8.50;99.90;;;;;;5059532;28;20040;-28
2022/10/07 00:43:59;;;;;;;11.30;5.43;;;8.40;99.90;;;;;;5077586;28;20462;-29
2022/10/07 00:46:36;;;;;;;7.95;6.30;;;8.40;99.90;;;;;;5070317;28;20123;-31
2022/10/07 00:49:10;;;;;;;7.30;4.85;;;8.30;99.90;;;;;;5061933;28;20032;-30
2022/10/07 00:51:37;;;;;;;7.28;5.05;;;8.30;99.90;;;;;;5082844;28;20040;-28
2022/10/07 00:54:07;;;;;;;9.60;6.18;;;8.20;99.90;;;;;;5065024;28;20043;-29
2022/10/07 00:56:33;;;;;;;9.75;4.43;;;8.20;99.90;;;;;;5050452;28;20036;-29
2022/10/07 00:59:00;;;;;;;8.10;5.47;;;8.10;99.90;;;;;;5070750;28;20075;-30
2022/10/07 01:01:26;;;;;;;10.48;5.07;;;8.10;99.90;;;;;;5060109;28;20066;-29
2022/10/07 01:03:53;;;;;;;7.53;4.90;;;8.10;99.90;;;;;;5071705;28;20036;-29
2022/10/07 01:06:18;;;;;;;8.57;5.03;;;8.10;99.90;;;;;;5072785;28;20036;-29
2022/10/07 01:08:46;;;;;;;11.18;5.00;;;8.10;99.90;;;;;;5067972;28;20036;-31
2022/10/07 01:11:47;;;;;;;10.95;4.47;;;8.00;99.90;;;;;;5072390;28;20111;-29
2022/10/07 01:14:38;;;;;;;12.25;4.85;;;8.00;99.90;;;;;;4968691;28;20040;-31
2022/10/07 01:17:30;;;;;;;11.00;5.32;;;8.00;99.90;;;;;;5067491;28;20051;-29
2022/10/07 01:20:23;;;;;;;11.10;5.50;;;8.00;99.90;;;;;;5050796;28;20382;-29
2022/10/07 01:23:17;;;;;;;9.32;4.97;;;8.00;99.90;;;;;;5070530;28;20093;-30
2022/10/07 01:26:13;;;;;;;14.90;5.23;;;8.10;99.90;;;;;;5065033;28;20043;-29
2022/10/07 01:28:45;;;;;;;8.82;4.65;;;8.20;99.90;;;;;;5070791;28;20286;-29
2022/10/07 01:31:16;;;;;;;5.95;4.60;;;8.20;99.90;;;;;;5070210;28;20040;-30
2022/10/07 01:33:43;;;;;;;6.53;5.28;;;8.20;99.90;;;;;;5053991;28;20119;-30
2022/10/07 01:36:15;;;;;;;9.25;5.25;;;8.30;99.90;;;;;;5070690;28;20042;-29
2022/10/07 01:38:47;;;;;;;8.32;5.00;;;8.30;99.90;;;;;;5072199;28;20028;-29
2022/10/07 01:41:16;;;;;;;9.75;5.40;;;8.30;99.90;;;;;;5040421;28;20050;-29
2022/10/07 01:43:44;;;;;;;10.75;5.15;;;8.40;99.90;;;;;;5073103;28;20397;-28
2022/10/07 01:46:18;;;;;;;9.57;5.25;;;8.40;99.90;;;;;;5073515;28;20040;-30
2022/10/07 01:48:47;;;;;;;10.05;5.18;;;8.40;99.90;;;;;;5057858;28;20102;-30
2022/10/07 01:51:14;;;;;;;10.27;5.15;;;8.30;99.90;;;;;;5065572;28;20045;-30
2022/10/07 01:54:12;;;;;;;10.85;5.28;;;8.30;99.90;;;;;;5074678;28;20370;-29
2022/10/07 01:56:43;;;;;;;10.43;4.55;;;8.30;99.90;;;;;;5065633;28;20033;-29
2022/10/07 01:59:18;;;;;;;10.52;4.82;;;8.30;99.90;;;;;;5059389;28;20038;-29
2022/10/07 02:01:50;;;;;;;9.02;5.13;;;8.30;99.90;;;;;;5072104;28;20074;-29
2022/10/07 02:04:29;;;;;;;8.07;5.30;;;8.30;99.90;;;;;;5072746;28;20043;-30
2022/10/07 02:07:22;;;;;;;9.13;5.35;;;8.30;99.90;;;;;;5067746;28;20093;-29
2022/10/07 02:10:11;;;;;;;9.70;5.00;;;8.30;99.90;;;;;;5069124;28;20038;-29
2022/10/07 02:13:00;;;;;;;7.68;5.53;;;8.30;99.90;;;;;;5067615;28;20327;-29
2022/10/07 02:15:41;;;;;;;12.15;5.47;;;8.30;99.90;;;;;;5066000;28;20060;-30
2022/10/07 02:18:12;;;;;;;12.57;5.80;;;8.30;99.90;;;;;;5057822;28;20054;-29
2022/10/07 02:20:40;;;;;;;8.15;5.28;;;8.30;99.90;;;;;;5061544;28;20164;-29
2022/10/07 02:23:09;;;;;;;13.05;6.93;;;8.30;99.90;;;;;;5067578;28;20126;-29
2022/10/07 02:25:39;;;;;;;13.02;5.32;;;8.30;99.90;;;;;;5047014;28;20158;-29
2022/10/07 02:28:08;;;;;;;10.93;6.40;;;8.30;99.90;;;;;;5072018;28;20489;-31
2022/10/07 02:30:35;;;;;;;9.65;5.55;;;8.30;99.90;;;;;;5075379;28;20032;-29
2022/10/07 02:33:05;;;;;;;10.73;6.00;;;8.30;99.90;;;;;;5066902;28;20075;-30
2022/10/07 02:35:58;;;;;;;12.45;5.95;;;8.30;99.90;;;;;;5071262;28;20048;-29
2022/10/07 02:38:28;;;;;;;9.38;5.72;;;8.30;99.90;;;;;;5061966;28;20064;-29
2022/10/07 02:41:05;;;;;;;14.88;8.02;;;8.20;99.90;;;;;;5069434;28;20035;-29
2022/10/07 02:43:55;;;;;;;9.68;5.07;;;8.30;99.90;;;;;;5071286;28;20061;-30
2022/10/07 02:46:36;;;;;;;11.77;5.97;;;8.30;99.90;;;;;;5069315;28;20063;-29
2022/10/07 02:49:09;;;;;;;13.65;6.25;;;8.30;99.90;;;;;;5075424;28;20043;-29
2022/10/07 02:51:40;;;;;;;11.90;5.80;;;8.20;99.90;;;;;;5071409;28;20289;-29
2022/10/07 02:54:06;;;;;;;8.55;5.88;;;8.30;99.90;;;;;;5063153;28;20032;-29
2022/10/07 02:56:36;;;;;;;11.98;6.03;;;8.30;99.90;;;;;;5048817;28;20047;-28
2022/10/07 02:59:07;;;;;;;12.70;6.00;;;8.30;99.90;;;;;;5075217;28;20046;-29
2022/10/07 03:01:39;;;;;;;11.07;6.07;;;8.30;99.90;;;;;;5069021;28;20110;-29
2022/10/07 03:04:06;;;;;;;9.77;5.63;;;8.30;99.90;;;;;;5070625;28;20074;-30
2022/10/07 03:06:33;;;;;;;12.45;5.65;;;8.30;99.90;;;;;;5072134;28;20040;-29
2022/10/07 03:08:59;;;;;;;9.75;5.70;;;8.30;99.90;;;;;;5064587;28;20520;-30
2022/10/07 03:11:25;;;;;;;15.82;6.43;;;8.30;99.90;;;;;;5075443;28;20123;-29
2022/10/07 03:13:51;;;;;;;12.40;6.10;;;8.30;99.90;;;;;;5068836;28;20120;-29
2022/10/07 03:16:16;;;;;;;14.13;6.00;;;8.40;99.90;;;;;;5064631;28;20075;-29
2022/10/07 03:18:42;;;;;;;13.27;5.82;;;8.40;99.90;;;;;;5073338;28;20097;-29
2022/10/07 03:21:08;;;;;;;12.40;5.35;;;8.40;99.90;;;;;;5040230;28;20575;-31
2022/10/07 03:23:34;;;;;;;12.38;5.43;;;8.40;99.90;;;;;;5074721;28;20036;-31
2022/10/07 03:26:00;;;;;;;10.02;5.72;;;8.40;99.90;;;;;;5085718;28;20040;-29
2022/10/07 03:28:34;;;;;;;12.90;6.30;;;8.30;99.90;;;;;;5066479;28;20032;-29
2022/10/07 03:31:07;;;;;;;;;;;8.40;99.90;;;;;;5073202;28;20482;-30
2022/10/07 03:33:33;;;;;;;7.95;5.43;;;8.40;99.90;;;;;;5057931;28;19923;-30
2022/10/07 03:35:59;;;;;;;17.30;6.55;;;8.30;99.90;;;;;;5070487;28;20051;-29
2022/10/07 03:38:25;;;;;;;13.48;6.20;;;8.30;99.90;;;;;;5070276;28;20428;-30
2022/10/07 03:40:51;;;;;;;13.25;6.22;;;8.30;99.90;;;;;;5069992;28;20055;-29
2022/10/07 03:43:17;;;;;;;13.80;6.25;;;8.30;99.90;;;;;;5071551;28;20130;-29
2022/10/07 03:45:44;;;;;;;11.07;6.00;;;8.30;99.90;;;;;;5074107;28;20123;-29
2022/10/07 03:48:10;;;;;;;13.52;6.97;;;8.30;99.90;;;;;;5070507;28;20028;-29
2022/10/07 03:50:36;;;;;;;13.30;6.70;;;8.30;99.90;;;;;;5066524;28;20034;-30
2022/10/07 03:53:05;;;;;;;10.73;6.25;;;8.30;99.90;;;;;;5073362;28;20036;-29
2022/10/07 03:55:31;;;;;;;15.52;6.45;;;8.30;99.90;;;;;;5064097;28;20043;-30
2022/10/07 03:57:57;;;;;;;13.57;6.85;;;8.30;99.90;;;;;;5067784;28;20044;-29
2022/10/07 04:00:24;;;;;;;14.77;7.47;;;8.20;99.90;;;;;;5072050;28;20068;-29
2022/10/07 04:02:51;;;;;;;16.48;6.82;;;8.30;99.90;;;;;;5068001;28;20036;-30
2022/10/07 04:05:18;;;;;;;16.70;6.90;;;8.30;99.90;;;;;;5053601;28;20086;-29
2022/10/07 04:07:47;;;;;;;12.55;6.70;;;8.20;99.90;;;;;;5066702;28;20156;-29
2022/10/07 04:10:15;;;;;;;14.32;6.93;;;8.30;99.90;;;;;;5057193;28;20493;-29
2022/10/07 04:12:44;;;;;;;17.88;7.57;;;8.30;99.90;;;;;;5067649;28;20059;-30
2022/10/07 04:15:13;;;;;;;14.95;7.10;;;8.30;99.90;;;;;;5058475;28;20116;-28
2022/10/07 04:17:43;;;;;;;14.20;6.43;;;8.30;99.90;;;;;;5067960;28;20058;-29
2022/10/07 04:20:10;;;;;;;15.55;6.78;;;8.30;99.90;;;;;;5056412;28;20047;-30
2022/10/07 04:22:37;;;;;;;12.77;6.25;;;8.30;99.90;;;;;;5061047;28;20043;-29
2022/10/07 04:27:57;;;;;;;14.93;7.07;;;8.30;99.90;;;;;;5075749;28;20052;-29
2022/10/07 04:30:26;;;;;;;13.35;6.28;;;8.30;99.90;;;;;;5061097;28;20024;-29
2022/10/07 04:32:51;;;;;;;11.52;6.20;;;8.30;99.90;;;;;;5066860;28;20032;-30
2022/10/07 04:35:19;;;;;;;12.52;6.63;;;8.30;99.90;;;;;;5061783;28;20389;-29
2022/10/07 04:37:47;;;;;;;16.13;6.75;;;8.30;99.90;;;;;;5056337;28;20055;-29
2022/10/07 04:40:13;;;;;;;9.93;6.35;;;8.30;99.90;;;;;;5059305;28;20094;-29
2022/10/07 04:45:24;;;;;;;13.10;6.63;;;8.30;99.90;;;;;;5059389;28;20090;-28
2022/10/07 04:47:50;;;;;;;15.55;6.53;;;8.30;99.90;;;;;;5063707;28;20028;-30
2022/10/07 04:50:16;;;;;;;12.20;6.53;;;8.30;99.90;;;;;;5057926;28;20036;-30
2022/10/07 04:52:42;;;;;;;16.88;7.82;;;8.30;99.90;;;;;;5083661;28;20032;-30
2022/10/07 04:55:13;;;;;;;15.43;6.85;;;8.30;99.90;;;;;;5065037;28;20071;-29
2022/10/07 04:57:39;;;;;;;15.50;6.93;;;8.30;99.90;;;;;;5066168;28;20475;-28
2022/10/07 05:00:07;;;;;;;14.40;6.55;;;8.20;99.90;;;;;;5060294;28;20477;-29
2022/10/07 05:02:34;;;;;;;15.73;7.05;;;8.20;99.90;;;;;;5062778;28;20036;-29
2022/10/07 05:05:00;;;;;;;14.10;6.15;;;8.20;99.90;;;;;;5041079;28;20044;-30
2022/10/07 05:07:26;;;;;;;12.32;6.38;;;8.20;99.90;;;;;;5061578;28;20498;-29
2022/10/07 05:09:52;;;;;;;15.40;6.88;;;8.20;99.90;;;;;;5055159;28;20117;-30
2022/10/07 05:12:18;;;;;;;14.18;7.60;;;8.20;99.90;;;;;;5056954;28;20405;-30
2022/10/07 05:14:44;;;;;;;12.57;6.93;;;8.20;99.90;;;;;;5057941;28;20041;-29
2022/10/07 05:17:11;;;;;;;15.00;6.20;;;8.20;99.90;;;;;;5062318;28;20361;-29
2022/10/07 05:19:37;;;;;;;11.27;5.90;;;8.20;99.90;;;;;;5060253;28;20046;-28
2022/10/07 05:22:03;;;;;;;16.83;7.32;;;8.20;99.90;;;;;;5063326;28;20128;-30
2022/10/07 05:24:29;;;;;;;13.60;6.75;;;8.20;99.90;;;;;;5054208;28;20032;-29
2022/10/07 05:26:55;;;;;;;18.80;7.03;;;8.20;99.90;;;;;;5062924;28;20040;-28
2022/10/07 05:29:21;;;;;;;14.32;6.18;;;8.20;99.90;;;;;;5060324;28;20115;-29
2022/10/07 05:31:48;;;;;;;17.65;8.10;;;8.20;99.90;;;;;;5052706;28;20036;-30
2022/10/07 05:34:14;;;;;;;19.50;7.95;;;8.20;99.90;;;;;;5044977;28;20045;-28
2022/10/07 05:36:41;;;;;;;14.52;6.90;;;8.20;99.90;;;;;;5060907;28;20064;-29
2022/10/07 05:39:10;;;;;;;14.40;7.50;;;8.20;99.90;;;;;;5059140;28;20036;-27
2022/10/07 05:41:38;;;;;;;13.88;7.55;;;8.30;99.90;;;;;;5057497;28;20036;-31
2022/10/07 05:44:03;;;;;;;22.50;7.22;;;8.20;99.90;;;;;;5056489;28;20032;-30
2022/10/07 05:46:29;;;;;;;14.57;6.85;;;8.30;99.90;;;;;;5057536;28;21467;-29
2022/10/07 05:48:55;;;;;;;15.57;6.68;;;8.30;99.90;;;;;;5063841;28;20040;-29
2022/10/07 05:51:22;;;;;;;14.55;6.88;;;8.30;99.90;;;;;;5068914;28;20036;-31
2022/10/07 05:53:52;;;;;;;13.68;6.82;;;8.30;99.90;;;;;;5064874;28;20059;-30
2022/10/07 05:56:20;;;;;;;16.23;7.32;;;8.30;99.90;;;;;;5062497;28;20127;-30
2022/10/07 05:58:46;;;;;;;11.38;6.43;;;8.30;99.90;;;;;;5075195;28;20059;-29
2022/10/07 06:01:18;;;;;;;19.85;7.88;;;8.30;99.90;;;;;;5070074;28;20143;-30
2022/10/07 06:03:49;;;;;;;13.88;6.82;;;8.30;99.90;;;;;;5057399;28;20032;-29
2022/10/07 06:06:16;;;;;;;15.30;8.10;;;8.30;99.90;;;;;;5072265;28;20192;-29
2022/10/07 06:08:42;;;;;;;18.52;7.80;;;8.40;99.90;;;;;;5063224;28;20047;-29
2022/10/07 06:13:55;;;;;;;16.40;7.25;;;8.40;99.90;;;;;;5084382;28;20105;-32
2022/10/07 06:16:23;;;;;;;16.27;7.40;;;8.40;99.90;;;;;;5069074;28;20501;-29
2022/10/07 06:18:51;;;;;;;16.23;7.38;;;8.50;99.90;;;;;;5055207;28;20036;-30
2022/10/07 06:21:18;;;;;;;15.98;7.40;;;8.50;99.90;;;;;;5059117;28;20477;-30
2022/10/07 06:23:50;;;;;;;11.65;6.43;;;8.50;99.90;;;;;;5063574;28;20044;-29
2022/10/07 06:26:16;;;;;;;12.30;6.65;;;8.60;99.90;;;;;;5071874;28;20059;-30
2022/10/07 06:28:41;;;;;;;16.45;6.50;;;8.60;99.90;;;;;;5075459;28;20032;-31
2022/10/07 06:31:14;;;;;;;15.55;7.07;;;8.60;99.90;;;;;;5062127;28;20562;-31
2022/10/07 06:33:40;;;;;;;15.23;6.78;;;8.60;99.90;;;;;;5050693;28;20036;-29
2022/10/07 06:36:11;;;;;;;14.90;6.53;;;8.70;99.90;;;;;;5074185;28;20046;-29
2022/10/07 06:38:42;;;;;;;14.95;7.03;;;8.80;99.90;;;;;;5064976;28;20046;-32
2022/10/07 06:41:08;;;;;;;15.10;7.20;;;8.90;99.90;;;;;;5083029;28;20048;-29
2022/10/07 06:43:34;;;;;;;11.70;6.97;;;9.10;99.90;;;;;;5072169;28;20068;-29
2022/10/07 06:46:03;;;;;;;15.15;6.97;;;9.20;99.90;;;;;;5066997;28;20129;-31
2022/10/07 06:48:30;;;;;;;12.77;6.65;;;9.30;99.90;;;;;;5074141;28;20158;-29
2022/10/07 06:51:02;;;;;;;14.70;6.85;;;9.40;99.90;;;;;;5069922;28;20028;-29
2022/10/07 06:53:28;;;;;;;21.80;6.95;;;9.50;99.90;;;;;;5069876;28;20375;-29
2022/10/07 06:55:56;;;;;;;14.32;7.25;;;9.60;99.90;;;;;;5061997;28;20048;-30
2022/10/07 06:58:26;;;;;;;12.45;6.60;;;9.70;99.90;;;;;;5074462;28;20477;-30
2022/10/07 07:00:52;;;;;;;19.27;7.05;;;9.80;99.90;;;;;;5086948;28;20046;-30
2022/10/07 07:03:19;;;;;;;16.60;6.75;;;9.80;99.90;;;;;;5083230;28;20043;-29
2022/10/07 07:05:45;;;;;;;11.55;6.95;;;9.80;99.90;;;;;;5074676;28;20089;-31
2022/10/07 07:08:12;;;;;;;13.63;6.43;;;9.80;99.90;;;;;;5062065;28;20112;-29
2022/10/07 07:10:40;;;;;;;13.10;5.95;;;9.80;99.90;;;;;;5074411;28;20039;-29
2022/10/07 07:13:07;;;;;;;10.15;5.93;;;9.80;99.90;;;;;;5066232;28;20128;-29
2022/10/07 07:15:33;;;;;;;12.32;6.07;;;9.70;99.90;;;;;;5069146;28;20504;-30
2022/10/07 07:17:59;;;;;;;15.27;6.15;;;9.80;99.90;;;;;;5069496;28;20437;-30
2022/10/07 07:20:25;;;;;;;16.15;6.72;;;9.70;99.90;;;;;;5070865;28;20069;-30
2022/10/07 07:22:53;;;;;;;19.00;6.90;;;9.70;99.90;;;;;;5069505;28;20114;-30
2022/10/07 07:25:19;;;;;;;17.17;6.70;;;9.80;99.90;;;;;;5069724;28;20040;-32
2022/10/07 07:27:46;;;;;;;12.75;6.65;;;9.80;99.90;;;;;;5067706;28;20054;-30
2022/10/07 07:30:13;;;;;;;14.80;6.35;;;9.90;99.90;;;;;;5071282;28;20512;-30
2022/10/07 07:32:39;;;;;;;14.43;5.78;;;9.90;99.90;;;;;;5069845;28;20115;-30
2022/10/07 07:35:06;;;;;;;13.98;6.60;;;10.00;99.90;;;;;;5062884;28;20404;-30
2022/10/07 07:37:32;;;;;;;14.38;6.03;;;10.20;99.90;;;;;;5085096;28;20040;-30
2022/10/07 07:39:58;;;;;;;17.42;6.13;;;10.40;99.90;;;;;;5069334;28;20032;-31
2022/10/07 07:42:27;;;;;;;18.55;6.13;;;10.50;99.90;;;;;;5067097;28;20035;-30
2022/10/07 07:44:54;;;;;;;11.23;5.45;;;10.60;99.90;;;;;;5073371;28;20039;-30
2022/10/07 07:47:20;;;;;;;12.20;5.75;;;10.80;99.90;;;;;;5072978;28;20071;-30
2022/10/07 07:49:48;;;;;;;13.85;5.55;;;10.90;99.90;;;;;;5071430;28;20040;-30
2022/10/07 07:52:16;;;;;;;14.73;5.05;;;11.10;99.90;;;;;;5052446;28;20072;-29
2022/10/07 07:54:42;;;;;;;10.07;5.68;;;11.50;99.90;;;;;;5089823;28;20089;-32
2022/10/07 07:57:09;;;;;;;10.98;5.40;;;11.90;99.90;;;;;;5063496;28;20160;-30
2022/10/07 07:59:36;;;;;;;16.52;5.20;;;12.30;99.90;;;;;;5069644;28;20044;-31
2022/10/07 08:02:03;;;;;;;14.90;5.07;;;12.60;99.90;;;;;;5073256;28;20040;-30
2022/10/07 08:04:30;;;;;;;16.00;5.00;;;12.90;99.90;;;;;;5071953;28;20509;-31
2022/10/07 08:06:55;;;;;;;14.45;4.57;;;13.10;99.90;;;;;;5089240;28;20059;-31
2022/10/07 08:09:22;;;;;;;9.25;4.18;;;13.20;99.90;;;;;;5061739;28;20393;-30
2022/10/07 08:11:47;;;;;;;12.40;4.95;;;13.30;99.90;;;;;;5092736;28;20119;-30
2022/10/07 08:14:15;;;;;;;13.85;4.50;;;13.30;99.90;;;;;;5067348;28;20454;-30
2022/10/07 08:16:47;;;;;;;10.15;4.20;;;13.20;99.90;;;;;;5073337;28;20039;-31
2022/10/07 08:19:15;;;;;;;12.32;4.40;;;13.20;99.90;;;;;;5073666;28;20084;-31
2022/10/07 08:21:41;;;;;;;13.73;4.15;;;13.30;99.90;;;;;;5054136;28;20048;-32
2022/10/07 08:24:10;;;;;;;10.73;4.32;;;13.50;99.90;;;;;;5078892;28;20093;-31
2022/10/07 08:26:37;;;;;;;14.88;4.75;;;13.90;99.90;;;;;;5059723;28;20117;-30
2022/10/07 08:29:03;;;;;;;12.38;4.45;;;14.10;99.90;;;;;;5068666;28;20043;-30
2022/10/07 08:31:29;;;;;;;8.40;3.78;;;14.40;99.90;;;;;;5071043;28;20044;-31
2022/10/07 08:33:57;;;;;;;10.90;3.35;;;14.40;99.90;;;;;;5066598;28;20043;-30
2022/10/07 08:36:25;;;;;;;9.73;3.30;;;14.40;99.90;;;;;;5055828;28;20044;-30
2022/10/07 08:38:55;;;;;;;13.93;3.58;;;14.40;99.90;;;;;;5069635;28;20085;-31
2022/10/07 08:41:33;;;;;;;9.60;3.08;;;14.50;99.90;;;;;;5070112;28;20040;-31
2022/10/07 08:44:25;;;;;;;13.05;3.22;;;14.70;99.90;;;;;;5069166;28;20043;-31
2022/10/07 08:46:58;;;;;;;7.28;3.40;;;14.80;99.90;;;;;;5052904;28;20386;-32
2022/10/07 08:49:35;;;;;;;13.80;3.40;;;14.90;99.90;;;;;;5079729;28;20046;-31
2022/10/07 08:52:36;;;;;;;12.52;3.05;;;14.90;99.90;;;;;;5058403;28;20040;-30
2022/10/07 08:55:23;;;;;;;10.13;3.75;;;14.80;99.90;;;;;;5029249;28;20588;-31
2022/10/07 08:58:14;;;;;;;8.68;3.00;;;14.70;99.90;;;;;;5065980;28;20083;-31
2022/10/07 09:00:46;;;;;;;10.32;3.45;;;14.70;99.90;;;;;;5064485;28;20040;-31
2022/10/07 09:03:37;;;;;;;8.57;3.20;;;14.50;99.90;;;;;;5071194;28;20072;-32
2022/10/07 09:06:09;;;;;;;10.60;3.20;;;14.60;99.90;;;;;;5064529;28;20429;-31
2022/10/07 09:08:40;;;;;;;9.00;3.38;;;14.70;99.90;;;;;;5071241;28;20036;-32
2022/10/07 09:11:14;;;;;;;11.40;3.47;;;15.20;99.90;;;;;;5065490;28;20497;-31
2022/10/07 09:13:51;;;;;;;10.02;3.03;;;15.70;99.90;;;;;;5065055;28;20032;-31
2022/10/07 09:16:30;;;;;;;11.20;3.53;;;16.50;99.90;;;;;;5065420;28;20051;-31
2022/10/07 09:19:02;;;;;;;6.55;2.88;;;16.90;99.90;;;;;;5068485;28;20405;-28
2022/10/07 09:21:28;;;;;;;10.05;2.47;;;17.10;99.90;;;;;;5071162;28;20036;-31
2022/10/07 09:23:56;;;;;;;9.38;2.83;;;17.60;99.90;;;;;;5063455;28;20393;-30
2022/10/07 09:26:24;;;;;;;8.25;2.47;;;17.70;99.90;;;;;;5072931;28;20036;-30
2022/10/07 09:28:50;;;;;;;12.18;3.13;;;17.70;99.90;;;;;;5069182;28;20051;-30
2022/10/07 09:31:16;;;;;;;11.70;2.88;;;17.60;99.90;;;;;;5062508;28;20556;-31
2022/10/07 09:33:45;;;;;;;7.68;2.35;;;17.80;99.90;;;;;;5070128;28;20043;-29
2022/10/07 09:36:17;;;;;;;9.35;2.78;;;18.30;99.90;;;;;;5066473;28;20479;-30
2022/10/07 09:38:49;;;;;;;10.95;3.03;;;18.60;99.90;;;;;;5074888;28;20051;-30
2022/10/07 09:41:30;;;;;;;7.97;2.90;;;18.60;99.90;;;;;;5069301;28;20120;-30
2022/10/07 09:44:14;;;;;;;10.35;3.22;;;18.70;99.90;;;;;;5066123;28;20072;-29
2022/10/07 09:46:45;;;;;;;10.70;2.97;;;19.00;99.90;;;;;;5067625;28;20044;-32
2022/10/07 09:49:42;;;;;;;8.35;2.75;;;19.20;99.90;;;;;;5077129;28;20032;-29
2022/10/07 09:52:16;;;;;;;10.68;2.85;;;19.20;99.90;;;;;;5048446;28;20126;-29
2022/10/07 09:54:45;;;;;;;8.95;3.03;;;19.30;99.90;;;;;;5069378;28;20044;-31
2022/10/07 09:57:33;;;;;;;8.57;2.40;;;19.50;99.90;;;;;;5069870;28;20040;-30
2022/10/07 10:00:11;;;;;;;6.75;2.80;;;19.80;99.90;;;;;;5061573;28;20036;-30
2022/10/07 10:02:51;;;;;;;8.70;2.78;;;20.30;99.90;;;;;;5076418;28;20073;-31
2022/10/07 10:05:30;;;;;;;13.48;3.28;;;20.70;99.90;;;;;;5066253;28;20072;-30
2022/10/07 10:08:05;;;;;;;7.75;2.53;;;20.90;99.90;;;;;;5072563;28;20038;-30
2022/10/07 10:10:35;;;;;;;8.55;2.47;;;20.90;97.90;;;;;;5065253;28;20416;-31
2022/10/07 10:13:04;;;;;;;6.38;2.20;;;20.80;99.90;;;;;;5065965;28;20094;-30
2022/10/07 10:15:39;;;;;;;9.57;2.88;;;21.00;99.90;;;;;;5066263;28;20039;-30
2022/10/07 10:18:31;;;;;;;10.50;2.90;;;21.30;99.90;;;;;;5064993;28;20040;-31
2022/10/07 10:21:18;;;;;;;8.60;2.65;;;21.60;86.30;;;;;;5068702;28;20517;-30
2022/10/07 10:23:46;;;;;;;8.75;2.90;;;21.70;94.50;;;;;;5074032;28;20035;-31
2022/10/07 10:26:24;;;;;;;10.02;2.70;;;21.80;93.50;;;;;;5076174;28;20040;-31
2022/10/07 10:29:03;;;;;;;8.90;2.90;;;22.00;99.70;;;;;;5075744;28;20394;-31
2022/10/07 10:32:02;;;;;;;9.48;2.42;;;22.10;81.70;;;;;;5074155;28;20501;-30
2022/10/07 10:35:05;;;;;;;10.63;3.13;;;21.90;97.10;;;;;;5060319;28;20036;-32
2022/10/07 10:37:40;;;;;;;8.47;3.00;;;22.20;92.00;;;;;;5075328;28;20554;-32
2022/10/07 10:40:15;;;;;;;8.10;2.80;;;22.50;91.70;;;;;;5075363;28;20286;-31
2022/10/07 10:43:12;;;;;;;12.35;2.72;;;22.10;95.50;;;;;;5068835;28;20097;-32
2022/10/07 10:45:50;;;;;;;8.57;2.63;;;22.00;91.30;;;;;;5021621;28;20048;-30
2022/10/07 10:48:34;;;;;;;8.13;2.65;;;21.90;95.60;;;;;;5060814;28;20035;-32
2022/10/07 10:51:06;;;;;;;9.43;2.70;;;21.80;87.20;;;;;;5072319;28;20045;-32
2022/10/07 10:54:02;;;;;;;9.50;2.60;;;22.00;98.10;;;;;;5069733;28;20040;-31
2022/10/07 10:56:44;;;;;;;9.57;3.13;;;22.40;84.90;;;;;;5069853;28;20036;-30
2022/10/07 10:59:33;;;;;;;9.75;2.72;;;22.50;89.90;;;;;;5061379;28;20044;-31
2022/10/07 11:02:21;;;;;;;7.95;2.47;;;22.50;93.30;;;;;;5063508;28;20143;-31
2022/10/07 11:04:56;;;;;;;9.27;2.88;;;22.30;79.40;;;;;;5065129;28;20482;-32
2022/10/07 11:07:29;;;;;;;9.82;2.83;;;22.10;94.40;;;;;;5064823;28;20094;-32
2022/10/07 11:10:34;;;;;;;9.85;2.83;;;22.30;95.40;;;;;;5072445;28;20036;-33
2022/10/07 11:13:13;;;;;;;11.50;2.67;;;23.00;90.60;;;;;;5064054;28;20055;-31
2022/10/07 11:15:46;;;;;;;10.23;3.13;;;23.40;88.80;;;;;;5071502;28;20505;-30
2022/10/07 11:18:36;;;;;;;9.18;2.95;;;23.40;88.80;;;;;;5062719;28;20105;-32
2022/10/07 11:21:07;;;;;;;9.70;2.80;;;23.40;76.50;;;;;;5067963;28;20048;-31
2022/10/07 11:23:49;;;;;;;9.63;3.08;;;22.80;75.10;;;;;;5066752;28;20032;-31
2022/10/07 11:26:42;;;;;;;11.73;2.83;;;22.20;84.40;;;;;;5065371;28;20127;-30
2022/10/07 11:29:19;;;;;;;6.75;2.50;;;22.10;90.10;;;;;;5064181;28;20107;-31
2022/10/07 11:31:55;;;;;;;11.05;2.50;;;22.20;93.00;;;;;;5065669;28;20041;-30
2022/10/07 11:34:46;;;;;;;5.90;2.55;;;22.30;94.20;;;;;;5070439;28;20089;-31
2022/10/07 11:37:36;;;;;;;6.88;2.63;;;22.60;90.70;;;;;;5064441;28;20040;-30
2022/10/07 11:40:06;;;;;;;8.55;2.55;;;22.90;88.10;;;;;;5070103;28;20165;-31
2022/10/07 11:42:43;;;;;;;8.85;2.65;;;22.90;75.80;;;;;;5070818;28;20047;-31
2022/10/07 11:45:17;;;;;;;6.50;2.45;;;22.50;81.90;;;;;;5059721;28;20486;-31
2022/10/07 11:47:49;;;;;;;8.98;2.95;;;22.60;90.60;;;;;;5065542;28;20398;-30
2022/10/07 11:50:26;;;;;;;8.23;2.55;;;22.60;89.80;;;;;;5061792;28;20221;-30
2022/10/07 11:52:59;;;;;;;7.75;2.47;;;22.60;91.30;;;;;;5066750;28;20044;-31
2022/10/07 11:55:30;;;;;;;7.28;2.35;;;22.70;90.20;;;;;;5063256;28;20032;-31
2022/10/07 11:57:59;;;;;;;6.05;2.40;;;22.80;92.00;;;;;;5065528;28;20080;-32
2022/10/07 12:00:29;;;;;;;10.32;2.55;;;23.10;90.40;;;;;;5067087;28;20115;-32
2022/10/07 12:02:56;;;;;;;10.75;2.47;;;23.20;83.50;;;;;;5065234;28;20036;-31
2022/10/07 12:05:34;;;;;;;8.88;2.58;;;23.10;83.10;;;;;;5069644;28;20036;-31
2022/10/07 12:08:01;;;;;;;8.07;2.67;;;23.00;86.10;;;;;;5065587;28;20382;-31
2022/10/07 12:10:29;;;;;;;8.90;2.58;;;23.30;80.60;;;;;;5065313;28;20028;-30
2022/10/07 12:13:17;;;;;;;11.68;2.63;;;23.40;75.60;;;;;;5066392;28;20387;-31
2022/10/07 12:15:44;;;;;;;7.95;2.55;;;23.90;73.00;;;;;;5045081;28;20040;-32
2022/10/07 12:18:09;;;;;;;8.70;2.72;;;24.00;74.50;;;;;;5069342;28;20040;-31
2022/10/07 12:20:49;;;;;;;5.70;1.98;;;24.30;69.20;;;;;;5072177;28;20378;-31
2022/10/07 12:23:21;;;;;;;6.97;2.65;;;24.40;67.80;;;;;;5069953;28;20401;-32
2022/10/07 12:26:21;;;;;;;9.02;2.15;;;24.60;65.10;;;;;;5069920;28;20037;-31
2022/10/07 12:28:47;;;;;;;6.82;2.10;;;24.80;62.20;;;;;;5072975;28;20039;-31
2022/10/07 12:31:25;;;;;;;7.93;2.20;;;24.90;63.50;;;;;;5070878;28;20028;-31
2022/10/07 12:34:04;;;;;;;7.03;2.22;;;24.70;60.90;;;;;;5055817;28;20129;-31
2022/10/07 12:36:31;;;;;;;5.47;2.00;;;24.50;59.00;;;;;;5073447;28;20032;-30
2022/10/07 12:38:59;;;;;;;6.78;2.08;;;24.60;58.30;;;;;;5069979;28;20040;-33
2022/10/07 12:41:52;;;;;;;8.30;2.25;;;24.00;58.60;;;;;;5062464;28;20047;-31
2022/10/07 12:44:44;;;;;;;7.93;1.73;;;23.20;63.00;;;;;;5064843;28;20048;-31
2022/10/07 12:47:10;;;;;;;5.47;2.30;;;23.10;66.20;;;;;;5073288;28;20415;-32
2022/10/07 12:49:57;;;;;;;5.85;2.03;;;23.60;68.50;;;;;;5068404;28;20039;-30
2022/10/07 12:52:39;;;;;;;7.72;2.25;;;24.50;64.80;;;;;;5071849;28;20031;-30
2022/10/07 12:55:13;;;;;;;6.10;2.35;;;24.40;59.90;;;;;;5065195;28;20440;-31
2022/10/07 12:57:46;;;;;;;6.40;2.13;;;23.80;60.90;;;;;;5068434;28;20482;-31
2022/10/07 13:00:23;;;;;;;7.80;1.70;;;22.90;63.50;;;;;;5064239;28;20043;-31
2022/10/07 13:03:04;;;;;;;6.28;2.30;;;22.30;70.80;;;;;;5068280;28;20032;-31
2022/10/07 13:05:44;;;;;;;5.57;2.00;;;21.60;79.70;;;;;;5061267;28;20348;-31
2022/10/07 13:08:39;;;;;;;8.23;2.28;;;21.00;88.50;;;;;;5066050;28;20052;-29
2022/10/07 13:11:29;;;;;;;7.20;2.33;;;20.80;96.80;;;;;;5071951;28;20043;-32
2022/10/07 13:14:03;;;;;;;8.63;2.17;;;20.70;93.70;;;;;;5068352;28;20119;-31
2022/10/07 13:16:41;;;;;;;8.05;2.00;;;20.50;94.90;;;;;;5074353;28;20032;-33
2022/10/07 13:19:18;;;;;;;8.52;1.92;;;20.40;95.20;;;;;;5077184;28;20036;-31
2022/10/07 13:22:13;;;;;;;7.60;2.25;;;20.40;96.30;;;;;;5074915;28;20505;-31
2022/10/07 13:24:45;;;;;;;9.07;2.70;;;20.40;96.70;;;;;;5068046;28;20044;-30